Forestburg, Canada
Current Conditions -  °F | °C
As of 7:47 PM on Sunday 23 Nov 2014 (Local Time) from CYEG Reporting Station
Snow Showers Snow Showers  
Wind Chill: 23°   Ceiling: 4000
Heat Index: 30°   Visibility: 12mi
Dew Point: 27°   Wind: 7mph
Humidity: 86%   Direction: 260°W
Pressure: 29.72"   Gusts: NA
Location:  52.58°N, 112.07°W
Report Text: CYEG 240247Z 26006KT 12SM -SHSN FEW030 BKN040 OVC060 M01/M03 A2972 RMK SC2SC3SC3 SLP113
Loading
Personal Weather Stations






























Interactive Weather Map New forecast layout! Learn more

10-Day Weather Forecast

Advertisements
Track Severe Weather on mobile